Time;durP1;ratioP1;P1;durP2;ratioP2;P2;SDS_P1;SDS_P2;PMS_P1;PMS_P2;Temp;Humidity;BMP_temperature;BMP_pressure;BME280_temperature;BME280_humidity;BME280_pressure;Samples;Min_cycle;Max_cycle;Signal;HPM_P1;HPM_P2
2022/11/25 00:01:45;;;;;;;12.98;2.83;;;;;;;9.63;100.00;100873.28;5302682;28;20028;-80
2022/11/25 00:04:17;;;;;;;14.95;2.53;;;;;;;9.56;100.00;100858.00;5312521;28;20040;-80
2022/11/25 00:06:48;;;;;;;16.15;3.78;;;;;;;9.57;100.00;100873.84;5318268;27;20032;-80
2022/11/25 00:09:20;;;;;;;12.18;2.97;;;;;;;9.58;100.00;100864.03;5300998;28;20032;-79
2022/11/25 00:11:51;;;;;;;12.43;3.70;;;;;;;9.56;100.00;100850.00;5316793;27;20202;-80
2022/11/25 00:14:23;;;;;;;16.23;3.50;;;;;;;9.61;100.00;100871.75;5317092;28;20404;-80
2022/11/25 00:16:54;;;;;;;17.60;3.03;;;;;;;9.64;100.00;100869.66;5318188;28;20051;-80
2022/11/25 00:19:26;;;;;;;11.88;2.83;;;;;;;9.44;100.00;100822.63;5320820;28;20059;-79
2022/11/25 00:21:57;;;;;;;17.35;4.07;;;;;;;9.65;100.00;100863.34;5303288;28;20111;-80
2022/11/25 00:24:29;;;;;;;14.10;3.47;;;;;;;9.64;100.00;100848.34;5319137;28;20028;-80
2022/11/25 00:27:03;;;;;;;17.33;3.53;;;;;;;9.67;100.00;100854.38;5298553;28;20086;-79
2022/11/25 00:29:35;;;;;;;19.63;3.42;;;;;;;9.53;100.00;100851.09;5318624;27;20047;-79
2022/11/25 00:32:08;;;;;;;13.00;2.97;;;;;;;9.63;100.00;100851.97;5305567;28;20052;-80
2022/11/25 00:34:40;;;;;;;18.00;3.28;;;;;;;9.55;100.00;100850.97;5320696;28;20108;-80
2022/11/25 00:37:11;;;;;;;14.95;3.25;;;;;;;9.59;100.00;100857.69;5321235;28;20099;-80
2022/11/25 00:39:43;;;;;;;14.35;3.05;;;;;;;9.56;100.00;100839.34;5315529;27;20688;-79
2022/11/25 00:45:05;;;;;;;10.52;2.97;;;;;;;9.49;100.00;100832.88;5315907;28;20044;-80
2022/11/25 00:47:36;;;;;;;19.63;3.55;;;;;;;9.46;100.00;100831.31;5320959;28;20082;-79
2022/11/25 00:50:08;;;;;;;18.88;3.97;;;;;;;9.52;100.00;100832.59;5301089;28;20028;-81
2022/11/25 00:52:39;;;;;;;18.77;3.72;;;;;;;9.52;100.00;100844.13;5294042;28;20028;-80
2022/11/25 00:55:11;;;;;;;15.70;3.53;;;;;;;9.51;100.00;100837.09;5317602;28;20464;-80
2022/11/25 00:57:42;;;;;;;13.75;2.60;;;;;;;9.46;100.00;100840.16;5298338;28;20031;-80
2022/11/25 01:00:14;;;;;;;20.55;3.20;;;;;;;9.50;100.00;100856.69;5316919;27;21307;-80
2022/11/25 01:02:47;;;;;;;14.55;3.50;;;;;;;9.56;100.00;100855.34;5315114;28;20024;-80
2022/11/25 01:05:18;;;;;;;14.95;3.17;;;;;;;9.55;100.00;100842.97;5327030;27;20082;-81
2022/11/25 01:07:49;;;;;;;15.48;2.78;;;;;;;9.50;100.00;100845.22;5336396;27;20024;-80
2022/11/25 01:10:21;;;;;;;10.52;2.72;;;;;;;9.51;100.00;100841.59;5337553;27;20395;-80
2022/11/25 01:12:52;;;;;;;11.98;2.80;;;;;;;9.62;100.00;100844.13;5338080;27;20035;-80
2022/11/25 01:15:23;;;;;;;13.40;3.03;;;;;;;9.64;100.00;100852.81;5338907;27;20391;-80
2022/11/25 01:17:55;;;;;;;14.65;3.25;;;;;;;9.66;100.00;100848.22;5337775;27;20027;-80
2022/11/25 01:20:26;;;;;;;12.88;2.85;;;;;;;9.63;100.00;100843.16;5337739;27;20035;-80
2022/11/25 01:22:57;;;;;;;14.18;3.17;;;;;;;9.60;100.00;100854.06;5335480;27;20024;-81
2022/11/25 01:25:28;;;;;;;17.98;3.35;;;;;;;9.62;100.00;100849.44;5341026;27;20483;-80
2022/11/25 01:28:00;;;;;;;19.27;3.78;;;;;;;9.67;100.00;100857.88;5337357;27;20035;-80
2022/11/25 01:30:31;;;;;;;12.55;3.38;;;;;;;9.65;100.00;100857.19;5338697;27;20470;-80
2022/11/25 01:33:03;;;;;;;14.15;3.45;;;;;;;9.58;100.00;100851.53;5341057;27;20112;-80
2022/11/25 01:35:37;;;;;;;23.42;4.15;;;;;;;9.63;100.00;100859.97;5340936;27;20058;-79
2022/11/25 01:38:08;;;;;;;13.70;3.28;;;;;;;9.67;100.00;100868.53;5336712;27;20027;-79
2022/11/25 01:40:40;;;;;;;13.93;2.30;;;;;;;9.60;100.00;100862.91;5332252;27;20020;-79
2022/11/25 01:43:14;;;;;;;16.85;3.58;;;;;;;9.68;100.00;100880.88;5340737;27;20062;-79
2022/11/25 01:45:46;;;;;;;15.70;3.65;;;;;;;9.65;100.00;100873.16;5340933;27;20483;-79
2022/11/25 01:48:24;;;;;;;17.58;3.33;;;;;;;9.72;100.00;100886.78;5340806;27;20043;-81
2022/11/25 01:50:55;;;;;;;19.38;3.65;;;;;;;9.69;100.00;100892.38;5341704;27;20065;-79
2022/11/25 01:53:27;;;;;;;17.95;3.80;;;;;;;9.63;100.00;100889.25;5356251;27;20475;-79
2022/11/25 01:56:02;;;;;;;13.50;2.88;;;;;;;9.76;100.00;100901.50;5338709;27;20035;-79
2022/11/25 01:58:35;;;;;;;19.13;3.20;;;;;;;9.67;100.00;100886.34;5341095;27;20027;-80
2022/11/25 02:01:07;;;;;;;15.43;2.85;;;;;;;9.70;100.00;100891.41;5335797;27;20102;-80
2022/11/25 02:03:43;;;;;;;16.25;3.95;;;;;;;9.81;100.00;100909.94;5337948;27;20544;-80
2022/11/25 02:06:25;;;;;;;19.02;3.60;;;;;;;9.82;100.00;100912.47;5318722;28;20032;-80
2022/11/25 02:09:06;;;;;;;15.20;3.15;;;;;;;9.74;100.00;100904.28;5292944;28;20042;-80
2022/11/25 02:11:41;;;;;;;13.35;3.50;;;;;;;9.83;100.00;100916.81;5318979;28;20027;-80
2022/11/25 02:14:15;;;;;;;14.63;3.53;;;;;;;9.84;100.00;100918.50;5314639;28;20484;-80
2022/11/25 02:16:47;;;;;;;13.65;3.22;;;;;;;9.84;100.00;100923.81;5319345;28;20442;-80
2022/11/25 02:19:24;;;;;;;12.93;3.65;;;;;;;9.82;100.00;100925.78;5318524;27;21736;-80
2022/11/25 02:22:01;;;;;;;19.73;3.75;;;;;;;9.81;100.00;100926.75;5319750;28;20032;-79
2022/11/25 02:24:44;;;;;;;14.43;3.75;;;;;;;9.79;100.00;100938.53;5316193;27;20035;-80
2022/11/25 02:27:16;;;;;;;14.05;3.13;;;;;;;9.42;100.00;100912.44;5302366;28;20036;-80
2022/11/25 02:29:49;;;;;;;18.35;3.45;;;;;;;9.40;100.00;100936.53;5292128;28;20181;-80
2022/11/25 02:32:22;;;;;;;16.38;2.97;;;;;;;9.26;100.00;100939.56;5319260;28;20118;-80
2022/11/25 02:34:53;;;;;;;17.45;3.47;;;;;;;9.10;100.00;100945.34;5317815;28;20560;-80
2022/11/25 02:37:24;;;;;;;21.20;3.30;;;;;;;9.04;100.00;100957.31;5320339;28;20435;-80
2022/11/25 02:39:56;;;;;;;12.55;3.10;;;;;;;8.95;100.00;100955.44;5317812;27;20047;-80
2022/11/25 02:42:28;;;;;;;14.75;3.22;;;;;;;8.87;100.00;100960.56;5293079;28;20020;-80
2022/11/25 02:45:00;;;;;;;18.27;3.33;;;;;;;8.77;100.00;100951.69;5317374;28;20027;-81
2022/11/25 02:47:32;;;;;;;18.23;2.90;;;;;;;8.80;100.00;100959.38;5319000;28;20035;-80
2022/11/25 02:50:04;;;;;;;16.35;3.05;;;;;;;8.73;100.00;100952.91;5317755;27;20020;-80
2022/11/25 02:52:35;;;;;;;13.93;2.72;;;;;;;8.70;100.00;100946.88;5318406;28;20024;-80
2022/11/25 02:55:07;;;;;;;19.27;3.45;;;;;;;8.66;100.00;100934.81;5295014;28;20024;-80
2022/11/25 02:57:38;;;;;;;13.90;3.42;;;;;;;8.65;100.00;100930.44;5315433;28;20468;-80
2022/11/25 03:00:10;;;;;;;12.65;2.38;;;;;;;8.61;100.00;100894.47;5317021;27;20039;-81
2022/11/25 03:02:42;;;;;;;14.60;2.63;;;;;;;8.56;100.00;100891.34;5318591;28;20093;-80
2022/11/25 03:05:14;;;;;;;18.95;3.42;;;;;;;8.56;100.00;100880.72;5316259;27;20071;-80
2022/11/25 03:07:45;;;;;;;11.20;2.35;;;;;;;8.48;100.00;100865.38;5318416;28;20024;-81
2022/11/25 03:10:16;;;;;;;11.93;2.60;;;;;;;8.56;100.00;100883.38;5297277;28;20034;-80
2022/11/25 03:12:48;;;;;;;19.35;3.58;;;;;;;8.54;100.00;100885.31;5312774;28;20063;-81
2022/11/25 03:15:19;;;;;;;12.50;2.65;;;;;;;8.52;100.00;100905.88;5294100;28;20051;-80
2022/11/25 03:17:51;;;;;;;12.52;3.35;;;;;;;8.46;100.00;100906.38;5318565;27;20167;-81
2022/11/25 03:20:23;;;;;;;11.98;2.72;;;;;;;8.50;100.00;100924.59;5317587;27;20063;-81
2022/11/25 03:22:55;;;;;;;17.20;2.58;;;;;;;8.38;100.00;100896.34;5319443;28;20383;-80
2022/11/25 03:25:26;;;;;;;15.85;2.72;;;;;;;8.47;100.00;100905.41;5317710;28;20032;-80
2022/11/25 03:27:57;;;;;;;15.95;2.50;;;;;;;8.43;100.00;100910.13;5318386;28;20022;-80
2022/11/25 03:30:29;;;;;;;12.73;2.17;;;;;;;8.39;100.00;100902.50;5316164;27;20062;-80
2022/11/25 03:33:01;;;;;;;12.02;2.17;;;;;;;8.37;100.00;100913.25;5317506;28;20103;-80
2022/11/25 03:35:32;;;;;;;9.57;2.22;;;;;;;8.31;100.00;100943.00;5300683;28;21548;-81
2022/11/25 03:38:04;;;;;;;14.02;2.25;;;;;;;8.32;100.00;100947.34;5320091;28;20102;-81
2022/11/25 03:40:35;;;;;;;15.15;2.58;;;;;;;8.31;100.00;100953.63;5322501;27;20027;-80
2022/11/25 03:43:06;;;;;;;8.95;2.05;;;;;;;8.27;100.00;100960.16;5321032;27;20099;-80
2022/11/25 03:45:38;;;;;;;12.40;2.33;;;;;;;8.25;100.00;100962.94;5319927;28;22181;-80
2022/11/25 03:48:09;;;;;;;9.38;1.88;;;;;;;8.23;100.00;100953.41;5318730;27;20020;-80
2022/11/25 03:50:41;;;;;;;13.18;2.50;;;;;;;8.21;100.00;100953.53;5319486;27;20078;-81
2022/11/25 03:53:12;;;;;;;11.55;1.90;;;;;;;8.19;100.00;100952.81;5321443;28;20036;-80
2022/11/25 03:55:46;;;;;;;9.40;2.05;;;;;;;8.16;100.00;100969.00;5319836;28;20024;-80
2022/11/25 03:58:18;;;;;;;11.38;1.80;;;;;;;8.06;100.00;100960.91;5301858;28;20059;-80
2022/11/25 04:00:49;;;;;;;9.70;1.90;;;;;;;8.09;100.00;100971.28;5321437;27;20021;-80
2022/11/25 04:03:20;;;;;;;7.15;1.50;;;;;;;8.05;100.00;100967.22;5317738;28;20031;-81
2022/11/25 04:05:52;;;;;;;11.70;1.70;;;;;;;8.05;100.00;100979.66;5337768;27;20108;-80
2022/11/25 04:08:24;;;;;;;5.63;1.50;;;;;;;8.03;100.00;100981.56;5336309;27;20079;-81
2022/11/25 04:10:56;;;;;;;9.50;1.73;;;;;;;7.89;100.00;100964.09;5339838;27;20106;-80
2022/11/25 04:13:28;;;;;;;6.45;1.42;;;;;;;7.89;100.00;100982.69;5338568;27;20141;-79
2022/11/25 04:15:59;;;;;;;6.25;1.80;;;;;;;7.84;100.00;100984.88;5339075;27;20027;-79
2022/11/25 04:18:30;;;;;;;9.95;1.92;;;;;;;7.77;100.00;100976.53;5338776;27;20441;-80
2022/11/25 04:21:02;;;;;;;10.48;1.83;;;;;;;7.73;100.00;100985.69;5337975;27;20020;-80
2022/11/25 04:23:33;;;;;;;5.63;1.50;;;;;;;7.71;100.00;101000.91;5336006;27;20041;-80
2022/11/25 04:26:05;;;;;;;7.85;1.42;;;;;;;7.67;100.00;101004.75;5339543;27;20028;-79
2022/11/25 04:28:36;;;;;;;7.53;1.58;;;;;;;7.63;100.00;100998.84;5337396;27;20023;-81
2022/11/25 04:31:08;;;;;;;7.32;1.60;;;;;;;7.55;100.00;101007.38;5336169;27;20032;-79
2022/11/25 04:33:39;;;;;;;7.63;1.92;;;;;;;7.53;100.00;101014.63;5332072;27;20031;-80
2022/11/25 04:36:11;;;;;;;7.55;1.65;;;;;;;7.58;100.00;101023.09;5338815;27;20490;-80
2022/11/25 04:38:42;;;;;;;9.73;1.85;;;;;;;7.42;100.00;101016.44;5338353;27;20012;-79
2022/11/25 04:41:14;;;;;;;9.25;1.95;;;;;;;7.45;100.00;101035.63;5354752;27;20028;-80
2022/11/25 04:43:45;;;;;;;7.95;1.92;;;;;;;7.50;100.00;101027.28;5339002;27;20445;-80
2022/11/25 04:46:20;;;;;;;6.78;1.70;;;;;;;7.58;100.00;101041.66;5337501;27;20035;-80
2022/11/25 04:48:51;;;;;;;6.20;1.55;;;;;;;7.54;100.00;101040.22;5337861;27;20150;-80
2022/11/25 04:51:23;;;;;;;5.28;1.50;;;;;;;7.37;100.00;101016.78;5338050;27;20048;-80
2022/11/25 04:53:54;;;;;;;6.55;1.50;;;;;;;7.39;100.00;101018.34;5336645;27;20032;-80
2022/11/25 04:56:25;;;;;;;10.18;2.72;;;;;;;7.47;100.00;101031.03;5337748;27;20031;-80
2022/11/25 05:01:47;;;;;;;3.10;1.17;;;;;;;7.49;100.00;101045.03;5340846;27;20028;-80
2022/11/25 05:04:18;;;;;;;8.65;1.55;;;;;;;7.49;100.00;101044.19;5340665;27;20047;-80
2022/11/25 05:06:50;;;;;;;5.20;1.67;;;;;;;7.46;100.00;101053.22;5339043;27;20400;-79
2022/11/25 05:09:21;;;;;;;7.88;1.65;;;;;;;7.45;100.00;101046.25;5344738;27;20028;-79
2022/11/25 05:11:53;;;;;;;5.13;1.80;;;;;;;7.52;100.00;101058.09;5338297;27;20084;-79
2022/11/25 05:14:25;;;;;;;6.47;2.28;;;;;;;7.29;100.00;101035.09;5340123;27;20528;-79
2022/11/25 05:16:56;;;;;;;7.75;2.42;;;;;;;7.34;100.00;101056.81;5343845;27;20034;-79
2022/11/25 05:19:27;;;;;;;10.73;2.42;;;;;;;7.10;100.00;101038.28;5341213;27;20023;-79
2022/11/25 05:21:59;;;;;;;8.68;2.60;;;;;;;7.14;100.00;101053.88;5338746;27;20042;-79
2022/11/25 05:24:30;;;;;;;10.90;2.67;;;;;;;7.17;100.00;101055.41;5338970;27;20778;-79
2022/11/25 05:27:02;;;;;;;8.50;2.50;;;;;;;7.16;100.00;101053.75;5339163;27;20361;-79
2022/11/25 05:29:34;;;;;;;8.50;2.80;;;;;;;7.19;100.00;101057.03;5341193;27;20015;-79
2022/11/25 05:32:06;;;;;;;9.73;3.20;;;;;;;7.15;100.00;101054.69;5332147;27;20068;-79
2022/11/25 05:34:37;;;;;;;13.07;3.80;;;;;;;7.10;100.00;101064.81;5341097;27;20420;-79
2022/11/25 05:37:12;;;;;;;11.27;4.75;;;;;;;7.06;100.00;101063.34;5340507;27;20484;-79
2022/11/25 05:39:44;;;;;;;10.05;5.15;;;;;;;6.88;100.00;101042.53;5341042;27;20027;-79
2022/11/25 05:42:15;;;;;;;11.27;4.40;;;;;;;6.93;100.00;101071.38;5342415;27;20036;-80
2022/11/25 05:44:46;;;;;;;10.13;3.80;;;;;;;6.85;100.00;101058.66;5342314;27;20037;-80
2022/11/25 05:47:18;;;;;;;13.10;4.32;;;;;;;6.85;100.00;101071.94;5339289;27;20031;-80
2022/11/25 05:49:49;;;;;;;13.23;4.45;;;;;;;6.82;100.00;101074.81;5339012;27;20051;-80
2022/11/25 05:52:21;;;;;;;15.52;4.65;;;;;;;6.77;100.00;101083.09;5331808;27;20073;-80
2022/11/25 05:54:52;;;;;;;15.50;4.82;;;;;;;6.68;100.00;101062.56;5342012;27;20026;-80
2022/11/25 05:57:23;;;;;;;17.67;5.75;;;;;;;6.70;100.00;101084.50;5343350;27;20042;-80
2022/11/25 05:59:54;;;;;;;14.73;6.28;;;;;;;6.74;100.00;101087.78;5340705;27;20123;-80
2022/11/25 06:02:26;;;;;;;17.48;6.63;;;;;;;6.79;100.00;101094.44;5341439;27;20452;-80
2022/11/25 06:04:57;;;;;;;20.80;7.00;;;;;;;6.76;100.00;101088.53;5327377;27;20040;-80
2022/11/25 06:07:28;;;;;;;18.85;7.15;;;;;;;6.80;100.00;101090.84;5306216;28;20769;-80
2022/11/25 06:10:00;;;;;;;21.42;7.88;;;;;;;6.76;100.00;101085.88;5317298;27;28861;-81
2022/11/25 06:12:31;;;;;;;20.63;8.40;;;;;;;6.85;100.00;101093.13;5320041;28;20020;-80
2022/11/25 06:15:03;;;;;;;18.33;7.72;;;;;;;6.72;100.00;101077.28;5304527;28;20030;-80
2022/11/25 06:17:34;;;;;;;24.90;9.43;;;;;;;6.71;100.00;101082.69;5324403;28;20454;-79
2022/11/25 06:20:07;;;;;;;21.77;8.40;;;;;;;6.75;100.00;101102.72;5323393;28;20016;-79
2022/11/25 06:22:42;;;;;;;21.27;9.25;;;;;;;6.84;100.00;101117.13;5320973;27;20043;-79
2022/11/25 06:25:17;;;;;;;23.77;8.85;;;;;;;6.72;100.00;101101.16;5319909;27;20452;-80
2022/11/25 06:27:48;;;;;;;19.20;7.70;;;;;;;6.81;100.00;101118.19;5316398;27;20081;-79
2022/11/25 06:30:20;;;;;;;19.67;8.10;;;;;;;6.70;100.00;101094.28;5297517;27;20036;-79
2022/11/25 06:32:53;;;;;;;19.42;7.25;;;;;;;6.77;100.00;101114.09;5321375;27;20024;-80
2022/11/25 06:35:24;;;;;;;20.42;6.72;;;;;;;6.86;100.00;101112.56;5319564;28;20062;-80
2022/11/25 06:37:57;;;;;;;17.63;6.65;;;;;;;6.98;100.00;101133.72;5317114;28;20459;-79
2022/11/25 06:40:29;;;;;;;19.05;6.28;;;;;;;6.96;100.00;101132.13;5300024;27;20039;-80
2022/11/25 06:43:00;;;;;;;19.13;6.45;;;;;;;6.94;100.00;101137.56;5316662;27;20097;-79
2022/11/25 06:45:32;;;;;;;15.93;5.82;;;;;;;7.03;100.00;101140.50;5294434;28;20047;-80
2022/11/25 06:48:04;;;;;;;21.45;5.70;;;;;;;6.96;100.00;101143.59;5297871;27;20055;-80
2022/11/25 06:50:35;;;;;;;14.48;5.13;;;;;;;6.96;100.00;101150.69;5318498;27;20422;-80
2022/11/25 06:53:07;;;;;;;13.68;4.95;;;;;;;6.88;100.00;101139.81;5316567;28;20024;-80
2022/11/25 06:55:38;;;;;;;18.92;4.90;;;;;;;6.91;100.00;101147.56;5318242;27;20031;-80
2022/11/25 06:58:09;;;;;;;12.77;4.63;;;;;;;6.89;100.00;101146.78;5324830;27;20050;-80
2022/11/25 07:00:41;;;;;;;18.13;5.43;;;;;;;6.84;100.00;101146.28;5318414;27;20024;-80
2022/11/25 07:03:12;;;;;;;13.35;4.60;;;;;;;6.83;100.00;101153.41;5331690;27;20038;-80
2022/11/25 07:05:43;;;;;;;13.45;4.57;;;;;;;6.94;100.00;101161.44;5324589;27;20055;-80
2022/11/25 07:08:15;;;;;;;14.65;4.68;;;;;;;6.75;100.00;101153.09;5296712;28;20233;-80
2022/11/25 07:10:46;;;;;;;17.65;4.82;;;;;;;6.66;100.00;101165.19;5321967;27;20699;-80
2022/11/25 07:13:18;;;;;;;10.30;4.75;;;;;;;6.66;100.00;101174.97;5304964;28;20546;-80
2022/11/25 07:15:50;;;;;;;15.30;4.43;;;;;;;6.57;100.00;101177.34;5294984;28;20036;-80
2022/11/25 07:18:21;;;;;;;11.13;4.28;;;;;;;6.57;100.00;101179.97;5297181;28;20487;-79
2022/11/25 07:20:52;;;;;;;15.10;4.68;;;;;;;6.60;100.00;101189.50;5318665;27;20448;-79
2022/11/25 07:23:24;;;;;;;14.80;4.65;;;;;;;6.50;100.00;101178.69;5315776;27;20074;-80
2022/11/25 07:26:00;;;;;;;15.77;4.60;;;;;;;6.56;100.00;101206.59;5305891;28;20028;-79
2022/11/25 07:28:33;;;;;;;16.90;4.90;;;;;;;6.53;100.00;101207.63;5321421;28;20484;-80
2022/11/25 07:31:20;;;;;;;16.48;4.30;;;;;;;6.50;100.00;101204.34;5322119;28;20028;-80
2022/11/25 07:34:06;;;;;;;18.65;5.35;;;;;;;6.53;100.00;101210.28;5325240;27;20055;-80
2022/11/25 07:36:37;;;;;;;19.83;5.32;;;;;;;6.44;100.00;101202.97;5324234;27;20043;-80
2022/11/25 07:39:15;;;;;;;12.07;4.63;;;;;;;6.56;100.00;101220.69;5325950;28;20032;-80
2022/11/25 07:41:53;;;;;;;13.50;4.72;;;;;;;6.52;100.00;101227.16;5325075;28;20047;-79
2022/11/25 07:44:24;;;;;;;14.25;4.88;;;;;;;6.49;100.00;101219.41;5325701;28;20032;-80
2022/11/25 07:46:55;;;;;;;17.20;4.88;;;;;;;6.59;100.00;101243.47;5325727;28;20031;-80
2022/11/25 07:49:27;;;;;;;16.15;4.95;;;;;;;6.59;100.00;101246.09;5325627;28;20016;-80
2022/11/25 07:52:03;;;;;;;18.05;4.68;;;;;;;6.53;100.00;101236.78;5306394;28;20094;-80
2022/11/25 07:54:34;;;;;;;15.90;5.03;;;;;;;6.53;100.00;101238.59;5305097;28;20094;-80
2022/11/25 07:57:05;;;;;;;12.73;4.35;;;;;;;6.54;100.00;101241.16;5305117;28;20029;-80
2022/11/25 07:59:40;;;;;;;16.38;4.93;;;;;;;6.60;100.00;101240.72;5289390;28;20107;-80
2022/11/25 08:02:11;;;;;;;11.95;5.22;;;;;;;6.60;100.00;101251.31;5312475;28;20025;-80
2022/11/25 08:04:42;;;;;;;12.68;4.40;;;;;;;6.75;100.00;101272.41;5303749;28;20079;-80
2022/11/25 08:07:14;;;;;;;18.92;4.70;;;;;;;6.75;100.00;101273.25;5303999;28;20025;-80
2022/11/25 08:09:45;;;;;;;16.00;5.00;;;;;;;6.76;100.00;101276.75;5308662;28;20032;-80
2022/11/25 08:12:16;;;;;;;13.93;4.80;;;;;;;6.80;100.00;101281.75;5325032;28;20017;-80
2022/11/25 08:14:48;;;;;;;10.23;4.32;;;;;;;6.79;100.00;101276.56;5324811;28;20028;-80
2022/11/25 08:17:19;;;;;;;14.27;4.90;;;;;;;6.84;100.00;101292.13;5325590;28;20020;-80
2022/11/25 08:19:51;;;;;;;16.25;4.88;;;;;;;6.78;100.00;101275.72;5306140;28;20031;-80
2022/11/25 08:22:22;;;;;;;10.52;4.47;;;;;;;6.91;100.00;101290.75;5306669;28;20427;-80
2022/11/25 08:24:53;;;;;;;15.70;4.80;;;;;;;6.93;100.00;101297.63;5324228;28;20036;-81
2022/11/25 08:27:25;;;;;;;14.85;4.43;;;;;;;6.89;100.00;101288.22;5324371;28;20039;-80
2022/11/25 08:29:56;;;;;;;15.90;5.15;;;;;;;7.03;100.00;101295.19;5324879;28;20099;-80
2022/11/25 08:32:27;;;;;;;8.88;4.43;;;;;;;7.08;100.00;101305.47;5325367;28;20016;-80
2022/11/25 08:34:59;;;;;;;20.08;5.18;;;;;;;7.02;100.00;101296.16;5328626;27;20471;-80
2022/11/25 08:37:30;;;;;;;12.82;4.55;;;;;;;7.14;100.00;101308.53;5308786;28;20392;-80
2022/11/25 08:40:03;;;;;;;14.15;4.82;;;;;;;7.16;100.00;101305.78;5309695;28;20043;-80
2022/11/25 08:42:34;;;;;;;15.38;5.10;;;;;;;7.21;100.00;101308.13;5305375;28;20032;-80
2022/11/25 08:45:07;;;;;;;18.25;6.00;;;;;;;7.15;100.00;101291.69;5307611;28;20062;-80
2022/11/25 08:47:38;;;;;;;13.85;5.25;;;;;;;7.30;100.00;101304.81;5307182;28;20025;-80
2022/11/25 08:50:13;;;;;;;13.32;5.13;;;;;;;7.32;100.00;101294.91;5305798;28;20483;-80
2022/11/25 08:52:44;;;;;;;14.95;5.40;;;;;;;7.41;100.00;101312.00;5289179;28;20020;-80
2022/11/25 08:55:16;;;;;;;12.93;5.95;;;;;;;7.43;100.00;101318.88;5318720;28;20038;-80
2022/11/25 08:57:47;;;;;;;16.58;5.35;;;;;;;7.45;100.00;101308.16;5329109;28;20027;-80
2022/11/25 09:00:20;;;;;;;13.30;4.97;;;;;;;7.51;100.00;101310.38;5310254;28;20074;-80
2022/11/25 09:02:51;;;;;;;14.95;4.70;;;;;;;7.52;100.00;101312.03;5310904;28;20032;-80
2022/11/25 09:05:22;;;;;;;14.52;5.15;;;;;;;7.64;100.00;101321.78;5329266;27;20546;-80
2022/11/25 09:07:54;;;;;;;14.27;5.20;;;;;;;7.64;100.00;101323.59;5328623;28;20020;-80
2022/11/25 09:10:25;;;;;;;13.43;5.13;;;;;;;7.72;100.00;101327.38;5309312;28;20027;-80
2022/11/25 09:12:57;;;;;;;12.63;4.45;;;;;;;7.79;100.00;101337.56;5329210;28;20024;-80
2022/11/25 09:15:30;;;;;;;16.08;6.13;;;;;;;7.69;100.00;101335.56;5328467;28;20024;-80
2022/11/25 09:18:04;;;;;;;11.95;5.32;;;;;;;7.64;100.00;101321.78;5328563;28;20426;-80
2022/11/25 09:20:38;;;;;;;21.80;6.80;;;;;;;7.87;100.00;101351.13;5327636;27;20418;-80
2022/11/25 09:23:09;;;;;;;14.40;5.03;;;;;;;7.86;100.00;101342.31;5328937;28;20127;-80
2022/11/25 09:25:41;;;;;;;12.35;4.97;;;;;;;7.98;100.00;101358.28;5330985;28;20027;-80
2022/11/25 09:28:12;;;;;;;20.38;5.32;;;;;;;7.85;100.00;101329.97;5313789;28;20032;-79
2022/11/25 09:30:44;;;;;;;12.63;4.65;;;;;;;8.03;100.00;101362.34;5328735;28;20026;-79
2022/11/25 09:33:16;;;;;;;18.35;5.18;;;;;;;8.11;100.00;101359.94;5328771;28;20113;-79
2022/11/25 09:35:49;;;;;;;16.13;5.45;;;;;;;8.12;100.00;101358.97;5329255;28;20468;-80
2022/11/25 09:38:20;;;;;;;12.00;4.38;;;;;;;8.12;100.00;101377.59;5328185;28;20024;-79
2022/11/25 09:40:56;;;;;;;15.48;5.20;;;;;;;8.14;100.00;101375.66;5327973;28;20387;-79
2022/11/25 09:47:08;;;;;;;18.10;5.82;;;;;;;8.27;100.00;101380.06;5325667;27;20024;-79
2022/11/25 09:50:14;;;;;;;13.32;4.90;;;;;;;8.28;100.00;101387.91;5220460;28;20158;-80
2022/11/25 09:53:01;;;;;;;9.60;4.03;;;;;;;8.40;100.00;101401.28;5220762;28;20026;-80
2022/11/25 09:55:37;;;;;;;;;;;;;;;8.47;100.00;101395.41;5297535;28;20039;-80
2022/11/25 09:58:30;;;;;;;11.15;4.30;;;;;;;8.54;100.00;101398.47;5328117;28;19912;-79
2022/11/25 10:01:12;;;;;;;10.52;4.53;;;;;;;8.61;100.00;101391.72;5303733;28;20477;-80
2022/11/25 10:04:08;;;;;;;15.68;4.13;;;;;;;8.77;100.00;101401.19;5322448;27;20036;-81
2022/11/25 10:06:47;;;;;;;10.77;4.65;;;;;;;8.83;100.00;101403.38;5309130;28;20028;-80
2022/11/25 10:09:23;;;;;;;14.00;3.78;;;;;;;8.96;100.00;101401.47;5327346;28;20076;-80
2022/11/25 10:11:59;;;;;;;16.05;4.18;;;;;;;8.98;100.00;101407.50;5309158;28;20024;-80
2022/11/25 10:14:41;;;;;;;12.95;3.35;;;;;;;9.05;100.00;101411.41;5327323;28;20040;-79
2022/11/25 10:17:38;;;;;;;14.63;3.47;;;;;;;9.12;100.00;101422.41;5327425;28;20133;-80
2022/11/25 10:20:16;;;;;;;12.93;3.05;;;;;;;9.20;100.00;101424.47;5326880;28;20020;-80
2022/11/25 10:22:53;;;;;;;12.20;4.25;;;;;;;9.26;100.00;101439.97;5326764;28;20524;-80
2022/11/25 10:25:28;;;;;;;;;;;;;;;9.38;100.00;101444.34;5326480;28;20032;-80
2022/11/25 10:28:03;;;;;;;12.63;3.40;;;;;;;9.46;100.00;101433.09;5327984;27;19908;-81
2022/11/25 10:30:40;;;;;;;11.40;3.50;;;;;;;9.65;100.00;101441.31;5327691;28;20529;-80
2022/11/25 10:33:43;;;;;;;8.38;3.00;;;;;;;9.73;100.00;101450.50;5308857;28;20057;-80
2022/11/25 10:36:18;;;;;;;11.15;3.17;;;;;;;9.84;100.00;101439.84;5298046;28;20508;-80
2022/11/25 10:39:18;;;;;;;11.30;2.70;;;;;;;10.08;100.00;101452.16;5306577;28;20091;-80
2022/11/25 10:42:02;;;;;;;7.53;2.50;;;;;;;10.18;100.00;101451.28;5325343;28;20270;-80
2022/11/25 10:44:39;;;;;;;7.78;3.05;;;;;;;10.48;100.00;101451.59;5327218;28;20554;-80
2022/11/25 10:47:25;;;;;;;12.52;3.30;;;;;;;10.71;100.00;101455.00;5326735;28;20036;-80
2022/11/25 10:50:05;;;;;;;8.32;2.80;;;;;;;11.74;100.00;101462.22;5327363;28;20089;-80
2022/11/25 10:52:45;;;;;;;11.75;2.47;;;;;;;13.52;100.00;101449.63;5326413;28;20035;-81
2022/11/25 10:55:24;;;;;;;8.55;2.25;;;;;;;15.12;100.00;101453.44;5325849;28;20024;-81
2022/11/25 10:57:58;;;;;;;7.00;2.40;;;;;;;16.09;100.00;101458.66;5326906;27;20021;-80
2022/11/25 11:00:35;;;;;;;9.55;2.33;;;;;;;17.70;100.00;101458.97;5326780;28;20024;-81
2022/11/25 11:03:25;;;;;;;6.43;2.25;;;;;;;18.33;100.00;101461.72;5326703;28;20016;-81
2022/11/25 11:05:57;;;;;;;7.38;1.98;;;;;;;18.92;100.00;101463.84;5329002;27;20036;-81
2022/11/25 11:08:39;;;;;;;7.30;2.45;;;;;;;19.19;100.00;101467.81;5347171;27;20326;-81
2022/11/25 11:11:22;;;;;;;8.05;2.20;;;;;;;19.10;100.00;101468.94;5348043;27;20128;-81
2022/11/25 11:14:12;;;;;;;7.55;2.20;;;;;;;19.58;100.00;101468.59;5345774;27;20652;-81
2022/11/25 11:16:52;;;;;;;7.05;1.92;;;;;;;18.96;100.00;101467.88;5347795;27;20030;-81
2022/11/25 11:19:26;;;;;;;9.15;2.35;;;;;;;19.11;100.00;101481.44;5347304;27;20153;-81
2022/11/25 11:22:15;;;;;;;4.78;1.65;;;;;;;19.12;100.00;101484.97;5346719;27;20085;-81
2022/11/25 11:24:46;;;;;;;6.13;2.10;;;;;;;19.28;100.00;101490.22;5344630;27;20096;-81
2022/11/25 11:27:23;;;;;;;6.43;1.80;;;;;;;19.94;100.00;101492.22;5326137;28;20032;-81
2022/11/25 11:30:08;;;;;;;5.53;2.15;;;;;;;21.04;100.00;101498.44;5326206;28;20027;-81
2022/11/25 11:32:43;;;;;;;6.97;2.25;;;;;;;20.91;100.00;101502.69;5340123;27;20038;-81
2022/11/25 11:35:23;;;;;;;5.40;2.03;;;;;;;21.06;100.00;101504.50;5347541;27;20024;-81
2022/11/25 11:38:15;;;;;;;5.85;2.00;;;;;;;21.32;100.00;101506.56;5347713;27;20328;-81
2022/11/25 11:40:54;;;;;;;8.60;1.70;;;;;;;21.07;100.00;101507.00;5346515;27;20154;-81
2022/11/25 11:44:18;;;;;;;4.93;1.83;;;;;;;21.38;100.00;101518.50;5339041;27;20088;-81
2022/11/25 11:47:07;;;;;;;6.15;1.83;;;;;;;19.82;100.00;101517.03;5327817;27;20043;-81
2022/11/25 11:50:01;;;;;;;6.97;2.10;;;;;;;20.15;100.00;101521.25;5327738;27;20023;-81
2022/11/25 11:52:47;;;;;;;6.80;2.25;;;;;;;19.32;100.00;101517.72;5346969;27;20586;-81
2022/11/25 11:55:27;;;;;;;5.70;2.13;;;;;;;18.97;100.00;101517.34;5347221;27;20035;-81
2022/11/25 11:58:03;;;;;;;7.80;2.28;;;;;;;19.84;100.00;101522.28;5346549;27;20031;-81
2022/11/25 12:00:51;;;;;;;6.75;2.13;;;;;;;19.57;100.00;101521.88;5346588;27;20383;-81